sensor_id;sensor_type;location;lat;lon;timestamp;pressure;altitude;pressure_sealevel;temperature;humidity
58092;BME280;43896;48.178;11.578;2023-05-15T00:00:06;95335.63;;;11.63;78.41
58092;BME280;43896;48.178;11.578;2023-05-15T00:02:35;95395.31;;;12.17;76.79
58092;BME280;43896;48.178;11.578;2023-05-15T00:05:00;95392.13;;;12.22;76.97
58092;BME280;43896;48.178;11.578;2023-05-15T00:07:26;95353.38;;;12.08;76.02
58092;BME280;43896;48.178;11.578;2023-05-15T00:09:51;95362.13;;;12.23;75.44
58092;BME280;43896;48.178;11.578;2023-05-15T00:12:17;95335.78;;;11.85;75.85
58092;BME280;43896;48.178;11.578;2023-05-15T00:14:42;95328.66;;;11.94;75.68
58092;BME280;43896;48.178;11.578;2023-05-15T00:17:07;95361.03;;;11.56;77.78
58092;BME280;43896;48.178;11.578;2023-05-15T00:19:33;95410.38;;;11.62;78.69
58092;BME280;43896;48.178;11.578;2023-05-15T00:21:59;95324.44;;;11.61;77.45
58092;BME280;43896;48.178;11.578;2023-05-15T00:24:24;95366.91;;;12.05;76.12
58092;BME280;43896;48.178;11.578;2023-05-15T00:26:50;95400.97;;;12.29;76.37
58092;BME280;43896;48.178;11.578;2023-05-15T00:29:15;95347.47;;;12.06;76.15
58092;BME280;43896;48.178;11.578;2023-05-15T00:31:40;95315.97;;;11.89;75.41
58092;BME280;43896;48.178;11.578;2023-05-15T00:34:06;95326.50;;;10.97;79.59
58092;BME280;43896;48.178;11.578;2023-05-15T00:36:31;95309.44;;;10.93;79.65
58092;BME280;43896;48.178;11.578;2023-05-15T00:38:56;95322.88;;;11.52;77.61
58092;BME280;43896;48.178;11.578;2023-05-15T00:41:23;95359.13;;;12.11;76.35
58092;BME280;43896;48.178;11.578;2023-05-15T00:43:49;95372.66;;;12.08;75.69
58092;BME280;43896;48.178;11.578;2023-05-15T00:46:16;95316.41;;;11.78;77.17
58092;BME280;43896;48.178;11.578;2023-05-15T00:48:42;95316.25;;;11.10;78.62
58092;BME280;43896;48.178;11.578;2023-05-15T00:51:08;95336.84;;;10.75;82.16
58092;BME280;43896;48.178;11.578;2023-05-15T00:53:34;95335.69;;;11.32;79.75
58092;BME280;43896;48.178;11.578;2023-05-15T00:55:59;95357.56;;;11.33;79.18
58092;BME280;43896;48.178;11.578;2023-05-15T00:58:28;95361.19;;;11.78;78.16
58092;BME280;43896;48.178;11.578;2023-05-15T01:00:53;95376.75;;;12.11;76.58
58092;BME280;43896;48.178;11.578;2023-05-15T01:03:19;95384.69;;;11.64;77.91
58092;BME280;43896;48.178;11.578;2023-05-15T01:05:44;95381.97;;;10.95;81.58
58092;BME280;43896;48.178;11.578;2023-05-15T01:08:24;95384.00;;;11.16;81.26
58092;BME280;43896;48.178;11.578;2023-05-15T01:10:51;95294.28;;;11.26;78.19
58092;BME280;43896;48.178;11.578;2023-05-15T01:13:18;95332.78;;;10.96;79.91
58092;BME280;43896;48.178;11.578;2023-05-15T01:15:44;95329.34;;;11.41;79.06
58092;BME280;43896;48.178;11.578;2023-05-15T01:18:10;95329.19;;;11.66;77.08
58092;BME280;43896;48.178;11.578;2023-05-15T01:20:57;95318.88;;;11.79;75.93
58092;BME280;43896;48.178;11.578;2023-05-15T01:23:38;95374.78;;;11.90;77.82
58092;BME280;43896;48.178;11.578;2023-05-15T01:29:23;95343.28;;;11.04;80.86
58092;BME280;43896;48.178;11.578;2023-05-15T01:31:57;95371.97;;;11.68;78.72
58092;BME280;43896;48.178;11.578;2023-05-15T01:34:31;95327.00;;;10.69;81.35
58092;BME280;43896;48.178;11.578;2023-05-15T01:37:01;95377.28;;;11.60;79.30
58092;BME280;43896;48.178;11.578;2023-05-15T01:39:27;95317.44;;;11.54;77.66
58092;BME280;43896;48.178;11.578;2023-05-15T01:42:09;95300.94;;;11.14;78.74
58092;BME280;43896;48.178;11.578;2023-05-15T01:44:42;95302.78;;;11.51;77.46
58092;BME280;43896;48.178;11.578;2023-05-15T01:47:12;95354.47;;;12.13;76.67
58092;BME280;43896;48.178;11.578;2023-05-15T01:49:40;95357.56;;;12.17;75.97
58092;BME280;43896;48.178;11.578;2023-05-15T01:52:11;95376.16;;;12.38;75.07
58092;BME280;43896;48.178;11.578;2023-05-15T01:54:38;95307.66;;;12.00;75.09
58092;BME280;43896;48.178;11.578;2023-05-15T01:57:05;95287.13;;;11.96;74.53
58092;BME280;43896;48.178;11.578;2023-05-15T01:59:32;95345.50;;;12.37;74.23
58092;BME280;43896;48.178;11.578;2023-05-15T02:01:58;95334.41;;;12.27;74.49
58092;BME280;43896;48.178;11.578;2023-05-15T02:04:24;95307.41;;;12.10;74.05
58092;BME280;43896;48.178;11.578;2023-05-15T02:06:50;95337.31;;;12.32;74.27
58092;BME280;43896;48.178;11.578;2023-05-15T02:09:19;95337.50;;;12.31;74.13
58092;BME280;43896;48.178;11.578;2023-05-15T02:11:45;95347.16;;;12.38;74.53
58092;BME280;43896;48.178;11.578;2023-05-15T02:14:11;95328.31;;;12.27;74.48
58092;BME280;43896;48.178;11.578;2023-05-15T02:16:37;95327.50;;;12.26;74.09
58092;BME280;43896;48.178;11.578;2023-05-15T02:19:03;95348.97;;;12.38;74.08
58092;BME280;43896;48.178;11.578;2023-05-15T02:21:28;95314.31;;;12.11;74.59
58092;BME280;43896;48.178;11.578;2023-05-15T02:23:54;95317.97;;;12.10;74.67
58092;BME280;43896;48.178;11.578;2023-05-15T02:26:54;95364.41;;;12.26;74.68
58092;BME280;43896;48.178;11.578;2023-05-15T02:37:30;95326.13;;;12.00;75.02
58092;BME280;43896;48.178;11.578;2023-05-15T02:39:57;95299.16;;;11.90;74.82
58092;BME280;43896;48.178;11.578;2023-05-15T02:42:25;95359.88;;;12.35;74.76
58092;BME280;43896;48.178;11.578;2023-05-15T02:44:53;95314.09;;;11.98;74.77
58092;BME280;43896;48.178;11.578;2023-05-15T02:47:20;95365.16;;;12.35;74.53
58092;BME280;43896;48.178;11.578;2023-05-15T02:49:47;95276.91;;;11.78;74.64
58092;BME280;43896;48.178;11.578;2023-05-15T02:52:14;95289.34;;;11.84;74.51
58092;BME280;43896;48.178;11.578;2023-05-15T02:54:40;95301.38;;;12.01;74.66
58092;BME280;43896;48.178;11.578;2023-05-15T02:57:06;95301.59;;;12.00;74.65
58092;BME280;43896;48.178;11.578;2023-05-15T02:59:32;95312.88;;;12.09;74.59
58092;BME280;43896;48.178;11.578;2023-05-15T03:01:58;95354.59;;;12.35;74.30
58092;BME280;43896;48.178;11.578;2023-05-15T03:04:23;95360.97;;;12.41;74.56
58092;BME280;43896;48.178;11.578;2023-05-15T03:06:49;95354.25;;;12.38;74.71
58092;BME280;43896;48.178;11.578;2023-05-15T03:09:14;95291.84;;;12.00;74.50
58092;BME280;43896;48.178;11.578;2023-05-15T03:11:40;95333.94;;;12.24;74.14
58092;BME280;43896;48.178;11.578;2023-05-15T03:14:06;95296.50;;;11.98;74.58
58092;BME280;43896;48.178;11.578;2023-05-15T03:16:31;95310.13;;;12.02;74.57
58092;BME280;43896;48.178;11.578;2023-05-15T03:18:56;95337.50;;;12.31;74.10
58092;BME280;43896;48.178;11.578;2023-05-15T03:21:22;95305.66;;;12.03;74.12
58092;BME280;43896;48.178;11.578;2023-05-15T03:23:47;95336.41;;;12.25;74.03
58092;BME280;43896;48.178;11.578;2023-05-15T03:26:12;95274.09;;;11.79;74.62
58092;BME280;43896;48.178;11.578;2023-05-15T03:28:38;95325.03;;;12.10;74.06
58092;BME280;43896;48.178;11.578;2023-05-15T03:31:03;95293.34;;;11.80;74.70
58092;BME280;43896;48.178;11.578;2023-05-15T03:33:29;95344.78;;;12.14;74.65
58092;BME280;43896;48.178;11.578;2023-05-15T03:35:55;95280.75;;;11.67;74.89
58092;BME280;43896;48.178;11.578;2023-05-15T03:38:20;95276.63;;;11.73;74.45
58092;BME280;43896;48.178;11.578;2023-05-15T03:40:46;95283.09;;;11.85;74.35
58092;BME280;43896;48.178;11.578;2023-05-15T03:43:11;95331.03;;;12.18;73.81
58092;BME280;43896;48.178;11.578;2023-05-15T03:45:37;95293.09;;;11.90;74.46
58092;BME280;43896;48.178;11.578;2023-05-15T03:48:03;95313.75;;;12.01;73.99
58092;BME280;43896;48.178;11.578;2023-05-15T03:50:29;95358.88;;;12.21;74.24
58092;BME280;43896;48.178;11.578;2023-05-15T03:52:54;95271.97;;;11.75;74.73
58092;BME280;43896;48.178;11.578;2023-05-15T03:55:19;95302.13;;;11.95;74.34
58092;BME280;43896;48.178;11.578;2023-05-15T03:57:45;95362.41;;;12.28;75.07
58092;BME280;43896;48.178;11.578;2023-05-15T04:00:11;95274.09;;;11.79;74.82
58092;BME280;43896;48.178;11.578;2023-05-15T04:02:37;95340.41;;;12.21;74.92
58092;BME280;43896;48.178;11.578;2023-05-15T04:05:03;95308.03;;;11.97;74.75
58092;BME280;43896;48.178;11.578;2023-05-15T04:07:30;95327.84;;;12.08;74.65
58092;BME280;43896;48.178;11.578;2023-05-15T04:09:55;95339.50;;;12.14;74.88
58092;BME280;43896;48.178;11.578;2023-05-15T04:12:21;95287.78;;;11.75;74.97
58092;BME280;43896;48.178;11.578;2023-05-15T04:14:46;95339.97;;;12.17;74.81
58092;BME280;43896;48.178;11.578;2023-05-15T04:17:12;95311.88;;;11.87;75.31
58092;BME280;43896;48.178;11.578;2023-05-15T04:19:38;95312.56;;;11.66;75.68
58092;BME280;43896;48.178;11.578;2023-05-15T04:22:04;95328.56;;;11.18;79.08
58092;BME280;43896;48.178;11.578;2023-05-15T04:24:30;95361.13;;;11.86;77.54
58092;BME280;43896;48.178;11.578;2023-05-15T04:26:56;95342.91;;;11.38;78.49
58092;BME280;43896;48.178;11.578;2023-05-15T04:29:21;95285.38;;;11.27;76.93
58092;BME280;43896;48.178;11.578;2023-05-15T04:31:46;95319.22;;;11.53;77.31
58092;BME280;43896;48.178;11.578;2023-05-15T04:34:12;95320.75;;;11.71;76.11
58092;BME280;43896;48.178;11.578;2023-05-15T04:36:38;95306.06;;;11.76;75.83
58092;BME280;43896;48.178;11.578;2023-05-15T04:39:04;95322.88;;;11.90;75.42
58092;BME280;43896;48.178;11.578;2023-05-15T04:41:29;95365.75;;;12.22;75.50
58092;BME280;43896;48.178;11.578;2023-05-15T04:43:57;95323.47;;;12.00;75.53
58092;BME280;43896;48.178;11.578;2023-05-15T04:46:22;95357.03;;;12.22;75.42
58092;BME280;43896;48.178;11.578;2023-05-15T04:48:48;95383.44;;;12.36;75.28
58092;BME280;43896;48.178;11.578;2023-05-15T04:51:13;95347.16;;;11.39;79.20
58092;BME280;43896;48.178;11.578;2023-05-15T04:53:38;95385.00;;;12.08;77.34
58092;BME280;43896;48.178;11.578;2023-05-15T04:56:04;95344.94;;;11.74;78.33
58092;BME280;43896;48.178;11.578;2023-05-15T04:58:29;95374.91;;;11.73;79.63
58092;BME280;43896;48.178;11.578;2023-05-15T05:00:55;95360.31;;;10.85;82.06
58092;BME280;43896;48.178;11.578;2023-05-15T05:03:20;95384.41;;;10.97;83.25
58092;BME280;43896;48.178;11.578;2023-05-15T05:05:46;95315.66;;;11.00;81.65
58092;BME280;43896;48.178;11.578;2023-05-15T05:08:11;95324.50;;;11.53;78.58
58092;BME280;43896;48.178;11.578;2023-05-15T05:10:37;95366.75;;;12.06;76.84
58092;BME280;43896;48.178;11.578;2023-05-15T05:13:04;95360.72;;;11.97;77.82
58092;BME280;43896;48.178;11.578;2023-05-15T05:15:30;95398.97;;;12.31;76.64
58092;BME280;43896;48.178;11.578;2023-05-15T05:17:55;95318.88;;;11.56;78.05
58092;BME280;43896;48.178;11.578;2023-05-15T05:20:21;95383.75;;;12.04;78.02
58092;BME280;43896;48.178;11.578;2023-05-15T05:22:47;95354.94;;;11.33;80.04
58092;BME280;43896;48.178;11.578;2023-05-15T05:25:12;95340.72;;;10.87;83.61
58092;BME280;43896;48.178;11.578;2023-05-15T05:27:38;95346.94;;;10.95;81.74
58092;BME280;43896;48.178;11.578;2023-05-15T05:30:03;95366.34;;;10.94;83.63
58092;BME280;43896;48.178;11.578;2023-05-15T05:32:29;95330.31;;;10.63;84.86
58092;BME280;43896;48.178;11.578;2023-05-15T05:34:56;95319.88;;;10.30;85.72
58092;BME280;43896;48.178;11.578;2023-05-15T05:37:29;95362.66;;;11.34;81.82
58092;BME280;43896;48.178;11.578;2023-05-15T05:39:55;95316.78;;;10.74;81.48
58092;BME280;43896;48.178;11.578;2023-05-15T05:42:20;95370.41;;;11.27;80.82
58092;BME280;43896;48.178;11.578;2023-05-15T05:44:48;95385.69;;;11.09;82.29
58092;BME280;43896;48.178;11.578;2023-05-15T05:47:13;95332.22;;;10.38;84.79
58092;BME280;43896;48.178;11.578;2023-05-15T05:49:39;95366.53;;;10.36;86.24
58092;BME280;43896;48.178;11.578;2023-05-15T05:52:06;95368.34;;;10.27;87.60
58092;BME280;43896;48.178;11.578;2023-05-15T05:54:32;95403.88;;;10.79;86.16
58092;BME280;43896;48.178;11.578;2023-05-15T05:57:00;95423.56;;;11.31;82.99
58092;BME280;43896;48.178;11.578;2023-05-15T05:59:25;95404.31;;;10.99;83.37
58092;BME280;43896;48.178;11.578;2023-05-15T06:01:51;95361.66;;;10.73;83.20
58092;BME280;43896;48.178;11.578;2023-05-15T06:04:17;95409.97;;;11.19;83.62
58092;BME280;43896;48.178;11.578;2023-05-15T06:06:46;95364.94;;;10.75;83.91
58092;BME280;43896;48.178;11.578;2023-05-15T06:09:11;95378.00;;;10.99;83.70
58092;BME280;43896;48.178;11.578;2023-05-15T06:11:37;95364.47;;;11.34;80.21
58092;BME280;43896;48.178;11.578;2023-05-15T06:14:02;95323.09;;;11.42;79.50
58092;BME280;43896;48.178;11.578;2023-05-15T06:16:27;95382.78;;;11.96;77.62
58092;BME280;43896;48.178;11.578;2023-05-15T06:18:53;95363.94;;;11.61;79.48
58092;BME280;43896;48.178;11.578;2023-05-15T06:21:18;95352.25;;;11.41;78.81
58092;BME280;43896;48.178;11.578;2023-05-15T06:23:43;95424.72;;;12.06;79.36
58092;BME280;43896;48.178;11.578;2023-05-15T06:26:09;95383.47;;;12.13;77.03
58092;BME280;43896;48.178;11.578;2023-05-15T06:28:34;95337.19;;;11.96;75.67
58092;BME280;43896;48.178;11.578;2023-05-15T06:31:00;95392.16;;;12.37;75.11
58092;BME280;43896;48.178;11.578;2023-05-15T06:33:25;95415.34;;;12.56;75.25
58092;BME280;43896;48.178;11.578;2023-05-15T06:35:50;95369.13;;;12.31;74.70
58092;BME280;43896;48.178;11.578;2023-05-15T06:38:16;95386.13;;;11.90;77.60
58092;BME280;43896;48.178;11.578;2023-05-15T06:40:41;95353.84;;;12.11;75.76
58092;BME280;43896;48.178;11.578;2023-05-15T06:43:07;95391.81;;;12.55;75.45
58092;BME280;43896;48.178;11.578;2023-05-15T06:45:32;95404.94;;;12.10;77.14
58092;BME280;43896;48.178;11.578;2023-05-15T06:47:58;95338.56;;;12.07;74.96
58092;BME280;43896;48.178;11.578;2023-05-15T06:50:23;95374.78;;;12.43;74.92
58092;BME280;43896;48.178;11.578;2023-05-15T06:52:57;95352.31;;;12.17;75.55
58092;BME280;43896;48.178;11.578;2023-05-15T06:55:25;95372.19;;;12.05;75.98
58092;BME280;43896;48.178;11.578;2023-05-15T06:57:58;95438.47;;;12.16;77.83
58092;BME280;43896;48.178;11.578;2023-05-15T07:00:30;95345.13;;;12.11;75.22
58092;BME280;43896;48.178;11.578;2023-05-15T07:02:59;95399.63;;;11.95;77.41
58092;BME280;43896;48.178;11.578;2023-05-15T07:05:24;95443.41;;;12.72;75.07
58092;BME280;43896;48.178;11.578;2023-05-15T07:07:49;95432.13;;;12.93;74.19
58092;BME280;43896;48.178;11.578;2023-05-15T07:10:15;95409.19;;;12.94;74.28
58092;BME280;43896;48.178;11.578;2023-05-15T07:12:40;95379.88;;;12.89;73.33
58092;BME280;43896;48.178;11.578;2023-05-15T07:15:06;95368.97;;;12.92;71.40
58092;BME280;43896;48.178;11.578;2023-05-15T07:17:32;95372.91;;;13.18;70.56
58092;BME280;43896;48.178;11.578;2023-05-15T07:19:57;95429.72;;;13.43;70.91
58092;BME280;43896;48.178;11.578;2023-05-15T07:22:25;95385.66;;;13.29;70.66
58092;BME280;43896;48.178;11.578;2023-05-15T07:24:51;95437.53;;;13.52;71.67
58092;BME280;43896;48.178;11.578;2023-05-15T07:27:16;95435.03;;;13.65;70.83
58092;BME280;43896;48.178;11.578;2023-05-15T07:29:42;95407.97;;;13.63;70.90
58092;BME280;43896;48.178;11.578;2023-05-15T07:32:07;95418.81;;;13.90;69.88
58092;BME280;43896;48.178;11.578;2023-05-15T07:34:32;95374.38;;;13.78;68.99
58092;BME280;43896;48.178;11.578;2023-05-15T07:37:00;95323.09;;;13.51;67.22
58092;BME280;43896;48.178;11.578;2023-05-15T07:39:26;95363.75;;;13.72;68.14
58092;BME280;43896;48.178;11.578;2023-05-15T07:41:52;95339.66;;;13.60;67.95
58092;BME280;43896;48.178;11.578;2023-05-15T07:44:17;95335.94;;;13.32;69.07
58092;BME280;43896;48.178;11.578;2023-05-15T07:46:42;95378.34;;;13.67;68.18
58092;BME280;43896;48.178;11.578;2023-05-15T07:49:09;95391.06;;;13.79;67.28
58092;BME280;43896;48.178;11.578;2023-05-15T07:51:34;95367.31;;;13.42;69.66
58092;BME280;43896;48.178;11.578;2023-05-15T07:54:00;95376.97;;;13.50;70.71
58092;BME280;43896;48.178;11.578;2023-05-15T07:56:27;95413.53;;;13.90;68.90
58092;BME280;43896;48.178;11.578;2023-05-15T07:58:53;95385.31;;;13.02;72.29
58092;BME280;43896;48.178;11.578;2023-05-15T08:01:18;95365.88;;;12.44;74.07
58092;BME280;43896;48.178;11.578;2023-05-15T08:03:44;95389.44;;;12.75;73.44
58092;BME280;43896;48.178;11.578;2023-05-15T08:06:09;95380.50;;;13.06;73.19
58092;BME280;43896;48.178;11.578;2023-05-15T08:08:35;95330.56;;;13.26;71.83
58092;BME280;43896;48.178;11.578;2023-05-15T08:11:00;95328.28;;;13.59;69.52
58092;BME280;43896;48.178;11.578;2023-05-15T08:13:25;95339.53;;;13.90;67.83
58092;BME280;43896;48.178;11.578;2023-05-15T08:15:51;95412.69;;;14.32;68.23
58092;BME280;43896;48.178;11.578;2023-05-15T08:18:16;95402.47;;;14.29;68.92
58092;BME280;43896;48.178;11.578;2023-05-15T08:20:41;95415.28;;;14.25;68.90
58092;BME280;43896;48.178;11.578;2023-05-15T08:23:07;95373.34;;;14.57;66.76
58092;BME280;43896;48.178;11.578;2023-05-15T08:25:33;95373.19;;;15.00;65.81
58092;BME280;43896;48.178;11.578;2023-05-15T08:27:58;95367.88;;;14.94;63.78
58092;BME280;43896;48.178;11.578;2023-05-15T08:30:23;95360.38;;;14.62;65.35
58092;BME280;43896;48.178;11.578;2023-05-15T08:32:49;95341.78;;;13.93;64.72
58092;BME280;43896;48.178;11.578;2023-05-15T08:35:14;95418.81;;;14.96;64.93
58092;BME280;43896;48.178;11.578;2023-05-15T08:37:39;95358.88;;;14.53;65.89
58092;BME280;43896;48.178;11.578;2023-05-15T08:40:05;95386.09;;;14.69;66.27
58092;BME280;43896;48.178;11.578;2023-05-15T08:42:47;95401.31;;;15.02;66.69
58092;BME280;43896;48.178;11.578;2023-05-15T08:45:13;95349.66;;;14.42;67.55
58092;BME280;43896;48.178;11.578;2023-05-15T08:47:40;95409.34;;;13.80;69.09
58092;BME280;43896;48.178;11.578;2023-05-15T08:50:08;95387.47;;;13.86;68.37
58092;BME280;43896;48.178;11.578;2023-05-15T08:52:40;95350.22;;;13.81;67.02
58092;BME280;43896;48.178;11.578;2023-05-15T08:55:07;95374.66;;;13.62;69.59
58092;BME280;43896;48.178;11.578;2023-05-15T08:57:33;95371.25;;;14.46;67.12
58092;BME280;43896;48.178;11.578;2023-05-15T08:59:59;95375.78;;;15.35;65.48
58092;BME280;43896;48.178;11.578;2023-05-15T09:02:25;95357.50;;;15.74;63.46
58092;BME280;43896;48.178;11.578;2023-05-15T09:04:51;95311.66;;;16.20;59.39
58092;BME280;43896;48.178;11.578;2023-05-15T09:07:16;95405.28;;;16.74;60.59
58092;BME280;43896;48.178;11.578;2023-05-15T09:09:43;95338.72;;;15.55;61.68
58092;BME280;43896;48.178;11.578;2023-05-15T09:12:13;95312.66;;;16.33;58.80
58092;BME280;43896;48.178;11.578;2023-05-15T09:14:39;95327.78;;;17.11;55.95
58092;BME280;43896;48.178;11.578;2023-05-15T09:17:04;95346.91;;;17.65;55.24
58092;BME280;43896;48.178;11.578;2023-05-15T09:19:33;95323.28;;;17.43;53.53
58092;BME280;43896;48.178;11.578;2023-05-15T09:24:41;95382.03;;;15.89;58.89
58092;BME280;43896;48.178;11.578;2023-05-15T09:27:08;95291.41;;;15.39;59.24
58092;BME280;43896;48.178;11.578;2023-05-15T09:29:35;95382.25;;;16.08;58.66
58092;BME280;43896;48.178;11.578;2023-05-15T09:32:13;95338.59;;;15.90;57.10
58092;BME280;43896;48.178;11.578;2023-05-15T09:34:40;95346.53;;;16.50;56.39
58092;BME280;43896;48.178;11.578;2023-05-15T09:37:08;95299.16;;;16.34;55.83
58092;BME280;43896;48.178;11.578;2023-05-15T09:39:40;95330.91;;;16.74;55.33
58092;BME280;43896;48.178;11.578;2023-05-15T09:42:11;95379.56;;;17.72;55.50
58092;BME280;43896;48.178;11.578;2023-05-15T09:44:41;95380.97;;;16.64;55.53
58092;BME280;43896;48.178;11.578;2023-05-15T09:47:08;95288.38;;;16.22;55.30
58092;BME280;43896;48.178;11.578;2023-05-15T09:49:34;95327.38;;;15.82;57.40
58092;BME280;43896;48.178;11.578;2023-05-15T09:52:00;95283.41;;;15.12;59.03
58092;BME280;43896;48.178;11.578;2023-05-15T09:54:26;95373.50;;;16.07;59.03
58092;BME280;43896;48.178;11.578;2023-05-15T09:56:52;95354.31;;;15.92;60.16
58092;BME280;43896;48.178;11.578;2023-05-15T09:59:18;95382.88;;;16.23;58.06
58092;BME280;43896;48.178;11.578;2023-05-15T10:01:47;95387.13;;;15.78;59.73
58092;BME280;43896;48.178;11.578;2023-05-15T10:04:16;95329.41;;;14.56;64.21
58092;BME280;43896;48.178;11.578;2023-05-15T10:06:44;95343.44;;;14.22;68.68
58092;BME280;43896;48.178;11.578;2023-05-15T10:09:10;95334.13;;;14.33;70.28
58092;BME280;43896;48.178;11.578;2023-05-15T10:11:41;95301.47;;;13.84;73.47
58092;BME280;43896;48.178;11.578;2023-05-15T10:14:11;95366.38;;;14.21;72.80
58092;BME280;43896;48.178;11.578;2023-05-15T10:16:38;95352.75;;;14.18;71.96
58092;BME280;43896;48.178;11.578;2023-05-15T10:19:07;95328.66;;;14.06;72.09
58092;BME280;43896;48.178;11.578;2023-05-15T10:21:35;95319.16;;;14.47;70.26
58092;BME280;43896;48.178;11.578;2023-05-15T10:24:01;95328.09;;;14.74;70.22
58092;BME280;43896;48.178;11.578;2023-05-15T10:28:57;95341.16;;;16.64;64.13
58092;BME280;43896;48.178;11.578;2023-05-15T10:31:24;95343.69;;;16.39;65.93
58092;BME280;43896;48.178;11.578;2023-05-15T10:33:51;95310.19;;;15.57;66.61
58092;BME280;43896;48.178;11.578;2023-05-15T10:36:18;95293.59;;;15.09;66.95
58092;BME280;43896;48.178;11.578;2023-05-15T10:38:45;95345.53;;;15.03;68.27
58092;BME280;43896;48.178;11.578;2023-05-15T10:41:12;95328.78;;;14.96;68.23
58092;BME280;43896;48.178;11.578;2023-05-15T10:43:40;95329.94;;;15.48;64.10
58092;BME280;43896;48.178;11.578;2023-05-15T10:46:06;95264.91;;;15.39;62.10
58092;BME280;43896;48.178;11.578;2023-05-15T10:48:33;95330.03;;;16.02;61.19
58092;BME280;43896;48.178;11.578;2023-05-15T10:50:59;95264.34;;;15.77;61.10
58092;BME280;43896;48.178;11.578;2023-05-15T10:53:25;95244.97;;;15.63;62.21
58092;BME280;43896;48.178;11.578;2023-05-15T10:55:51;95297.59;;;15.80;63.27
58092;BME280;43896;48.178;11.578;2023-05-15T10:58:21;95252.09;;;15.43;65.24
58092;BME280;43896;48.178;11.578;2023-05-15T11:00:46;95270.44;;;15.57;66.18
58092;BME280;43896;48.178;11.578;2023-05-15T11:03:13;95273.25;;;16.23;67.29
58092;BME280;43896;48.178;11.578;2023-05-15T11:06:07;95305.94;;;15.97;66.04
58092;BME280;43896;48.178;11.578;2023-05-15T11:08:41;95307.38;;;16.06;65.26
58092;BME280;43896;48.178;11.578;2023-05-15T11:14:13;95295.13;;;16.11;61.83
58092;BME280;43896;48.178;11.578;2023-05-15T11:24:45;95244.41;;;17.05;57.43
58092;BME280;43896;48.178;11.578;2023-05-15T11:27:11;95238.47;;;16.58;61.30
58092;BME280;43896;48.178;11.578;2023-05-15T11:35:20;95232.19;;;18.48;54.36
58092;BME280;43896;48.178;11.578;2023-05-15T11:37:49;95238.31;;;18.49;51.61
58092;BME280;43896;48.178;11.578;2023-05-15T11:40:25;95198.47;;;17.80;52.12
58092;BME280;43896;48.178;11.578;2023-05-15T11:43:22;95209.84;;;17.62;52.71
58092;BME280;43896;48.178;11.578;2023-05-15T11:46:05;95295.53;;;17.71;54.24
58092;BME280;43896;48.178;11.578;2023-05-15T11:48:38;95292.56;;;16.57;58.92
58092;BME280;43896;48.178;11.578;2023-05-15T11:51:14;95291.28;;;15.81;63.95
58092;BME280;43896;48.178;11.578;2023-05-15T11:53:40;95234.72;;;15.07;64.79
58092;BME280;43896;48.178;11.578;2023-05-15T11:56:12;95263.94;;;15.80;64.32
58092;BME280;43896;48.178;11.578;2023-05-15T11:58:41;95265.25;;;16.49;63.64
58092;BME280;43896;48.178;11.578;2023-05-15T12:01:09;95241.47;;;16.03;62.34
58092;BME280;43896;48.178;11.578;2023-05-15T12:03:34;95231.22;;;16.26;60.29
58092;BME280;43896;48.178;11.578;2023-05-15T12:06:01;95310.72;;;16.86;55.30
58092;BME280;43896;48.178;11.578;2023-05-15T12:08:31;95282.78;;;16.57;55.95
58092;BME280;43896;48.178;11.578;2023-05-15T12:10:58;95258.41;;;15.68;58.61
58092;BME280;43896;48.178;11.578;2023-05-15T12:13:24;95330.34;;;16.59;56.96
58092;BME280;43896;48.178;11.578;2023-05-15T12:15:49;95264.97;;;15.92;59.32
58092;BME280;43896;48.178;11.578;2023-05-15T12:18:15;95295.31;;;15.70;61.39
58092;BME280;43896;48.178;11.578;2023-05-15T12:20:40;95293.28;;;16.05;60.28
58092;BME280;43896;48.178;11.578;2023-05-15T12:23:14;95295.34;;;15.90;60.85
58092;BME280;43896;48.178;11.578;2023-05-15T12:25:40;95277.97;;;15.67;60.07
58092;BME280;43896;48.178;11.578;2023-05-15T12:28:07;95237.19;;;15.62;60.79
58092;BME280;43896;48.178;11.578;2023-05-15T12:30:33;95227.72;;;16.39;59.33
58092;BME280;43896;48.178;11.578;2023-05-15T12:33:04;95284.16;;;17.89;56.10
58092;BME280;43896;48.178;11.578;2023-05-15T12:35:43;95258.41;;;17.19;59.87
58092;BME280;43896;48.178;11.578;2023-05-15T12:38:13;95222.38;;;16.46;61.17
58092;BME280;43896;48.178;11.578;2023-05-15T12:40:44;95263.84;;;16.99;59.94
58092;BME280;43896;48.178;11.578;2023-05-15T12:43:12;95255.97;;;16.72;61.06
58092;BME280;43896;48.178;11.578;2023-05-15T12:45:38;95338.22;;;17.05;59.10
58092;BME280;43896;48.178;11.578;2023-05-15T12:48:04;95316.97;;;15.93;61.38
58092;BME280;43896;48.178;11.578;2023-05-15T12:50:34;95318.63;;;14.99;63.66
58092;BME280;43896;48.178;11.578;2023-05-15T12:53:01;95334.19;;;15.29;63.57
58092;BME280;43896;48.178;11.578;2023-05-15T12:55:38;95314.06;;;15.62;63.30
58092;BME280;43896;48.178;11.578;2023-05-15T12:58:06;95342.88;;;15.78;62.74
58092;BME280;43896;48.178;11.578;2023-05-15T13:00:40;95340.81;;;15.93;61.98
58092;BME280;43896;48.178;11.578;2023-05-15T13:03:08;95342.28;;;16.09;61.32
58092;BME280;43896;48.178;11.578;2023-05-15T13:05:35;95353.88;;;16.02;62.53
58092;BME280;43896;48.178;11.578;2023-05-15T13:08:02;95335.84;;;15.44;62.11
58092;BME280;43896;48.178;11.578;2023-05-15T13:10:31;95342.88;;;15.78;62.04
58092;BME280;43896;48.178;11.578;2023-05-15T13:12:56;95310.81;;;15.66;60.81
58092;BME280;43896;48.178;11.578;2023-05-15T13:15:30;95350.28;;;15.28;64.47
58092;BME280;43896;48.178;11.578;2023-05-15T13:18:04;95343.22;;;15.55;64.17
58092;BME280;43896;48.178;11.578;2023-05-15T13:20:43;95351.00;;;15.70;63.41
58092;BME280;43896;48.178;11.578;2023-05-15T13:23:11;95312.72;;;15.11;64.10